Time;durP1;ratioP1;P1;durP2;ratioP2;P2;SDS_P1;SDS_P2;PMS_P1;PMS_P2;Temp;Humidity;BMP_temperature;BMP_pressure;BME280_temperature;BME280_humidity;BME280_pressure;Samples;Min_cycle;Max_cycle;Signal;HPM_P1;HPM_P2
2022/03/24 00:00:57;;;;;;;64.50;28.97;;;;;;;;;;5091770;28;20416;-63
2022/03/24 00:03:24;;;;;;;59.53;28.03;;;;;;;;;;5091431;28;20423;-63
2022/03/24 00:05:53;;;;;;;62.63;28.67;;;;;;;;;;5091700;28;20428;-64
2022/03/24 00:08:19;;;;;;;61.10;28.47;;;;;;;;;;5091688;28;20516;-63
2022/03/24 00:10:46;;;;;;;59.67;26.90;;;;;;;;;;5091842;28;20415;-63
2022/03/24 00:13:14;;;;;;;56.27;27.53;;;;;;;;;;5073718;28;20447;-63
2022/03/24 00:15:41;;;;;;;58.37;27.37;;;;;;;;;;5091497;28;20434;-64
2022/03/24 00:18:08;;;;;;;60.60;28.17;;;;;;;;;;5091128;28;20438;-63
2022/03/24 00:20:35;;;;;;;57.77;25.53;;;;;;;;;;5091871;28;20428;-64
2022/03/24 00:23:02;;;;;;;58.90;27.17;;;;;;;;;;5091745;28;20439;-63
2022/03/24 00:25:29;;;;;;;62.13;28.23;;;;;;;;;;5091557;28;20455;-63
2022/03/24 00:27:56;;;;;;;63.03;26.20;;;;;;;;;;5091480;28;20538;-63
2022/03/24 00:30:22;;;;;;;58.23;27.07;;;;;;;;;;5091154;28;20522;-63
2022/03/24 00:32:49;;;;;;;60.37;27.93;;;;;;;;;;5073049;28;20479;-63
2022/03/24 00:35:16;;;;;;;61.20;26.80;;;;;;;;;;5073287;28;20980;-63
2022/03/24 00:37:42;;;;;;;59.70;26.30;;;;;;;;;;5091320;28;20460;-63
2022/03/24 00:40:10;;;;;;;60.17;26.70;;;;;;;;;;5052396;28;20474;-63
2022/03/24 00:42:37;;;;;;;58.97;28.37;;;;;;;;;;5052795;28;20446;-64
2022/03/24 00:45:05;;;;;;;63.60;26.33;;;;;;;;;;5070624;28;20431;-63
2022/03/24 00:47:34;;;;;;;63.80;26.97;;;;;;;;;;5052850;28;21219;-64
2022/03/24 00:50:07;;;;;;;60.37;26.77;;;;;;;;;;5071183;28;20795;-63
2022/03/24 00:52:40;;;;;;;59.73;26.27;;;;;;;;;;5070676;28;20431;-63
2022/03/24 00:55:12;;;;;;;54.50;25.27;;;;;;;;;;5052995;28;20471;-63
2022/03/24 00:57:40;;;;;;;56.90;25.83;;;;;;;;;;5070184;28;20680;-63
2022/03/24 01:00:07;;;;;;;55.77;27.30;;;;;;;;;;5052563;28;20453;-63
2022/03/24 01:02:36;;;;;;;52.40;25.80;;;;;;;;;;5071859;28;20435;-63
2022/03/24 01:37:06;;;;;;;54.97;24.20;;;;;;;;;;5089772;28;21258;-63
2022/03/24 01:39:35;;;;;;;54.57;24.53;;;;;;;;;;5072023;28;20560;-63
2022/03/24 01:42:02;;;;;;;52.27;23.83;;;;;;;;;;5071673;28;20442;-63
2022/03/24 01:44:29;;;;;;;55.37;25.00;;;;;;;;;;5086986;28;20475;-63
2022/03/24 01:47:00;;;;;;;56.10;24.97;;;;;;;;;;5051940;28;20543;-63
2022/03/24 01:49:27;;;;;;;50.67;25.13;;;;;;;;;;5051696;28;20530;-63
2022/03/24 01:51:54;;;;;;;55.63;24.63;;;;;;;;;;5069715;28;20431;-63
2022/03/24 01:54:20;;;;;;;49.87;25.03;;;;;;;;;;5069619;28;20435;-63
2022/03/24 01:56:51;;;;;;;50.30;23.87;;;;;;;;;;5051678;28;20436;-63
2022/03/24 01:59:19;;;;;;;52.97;23.90;;;;;;;;;;5051618;28;20519;-63
2022/03/24 02:01:47;;;;;;;56.97;25.27;;;;;;;;;;5069741;28;20424;-64
2022/03/24 02:04:14;;;;;;;56.13;25.57;;;;;;;;;;5069337;28;20430;-63
2022/03/24 02:06:41;;;;;;;64.63;28.27;;;;;;;;;;5051253;28;20451;-63
2022/03/24 02:09:25;;;;;;;61.97;27.77;;;;;;;;;;5050545;28;20508;-63
2022/03/24 02:11:52;;;;;;;64.07;28.10;;;;;;;;;;5062271;28;20542;-63
2022/03/24 02:14:19;;;;;;;65.70;27.87;;;;;;;;;;5051445;28;20440;-64
2022/03/24 02:16:47;;;;;;;57.93;26.53;;;;;;;;;;5051430;28;20489;-63
2022/03/24 02:19:17;;;;;;;65.27;29.10;;;;;;;;;;5068986;28;20476;-63
2022/03/24 02:22:10;;;;;;;61.03;26.83;;;;;;;;;;5051049;28;20493;-63
2022/03/24 02:24:37;;;;;;;62.57;28.63;;;;;;;;;;5069079;28;20447;-63
2022/03/24 02:27:04;;;;;;;63.83;28.10;;;;;;;;;;5068652;28;20444;-63
2022/03/24 02:29:31;;;;;;;68.23;28.60;;;;;;;;;;5069115;28;20510;-63
2022/03/24 02:31:57;;;;;;;54.20;24.93;;;;;;;;;;5069068;28;20424;-63
2022/03/24 02:37:30;;;;;;;55.83;24.90;;;;;;;;;;5046005;28;20440;-62
2022/03/24 02:39:57;;;;;;;57.33;25.53;;;;;;;;;;5045755;28;20479;-63
2022/03/24 02:42:25;;;;;;;52.03;25.47;;;;;;;;;;5066501;28;20500;-63
2022/03/24 02:44:56;;;;;;;52.30;24.43;;;;;;;;;;5088795;28;20468;-63
2022/03/24 02:47:23;;;;;;;58.37;24.90;;;;;;;;;;5088345;28;20419;-63
2022/03/24 02:49:52;;;;;;;50.57;23.77;;;;;;;;;;5071039;28;20454;-63
2022/03/24 02:52:18;;;;;;;50.23;23.70;;;;;;;;;;5088654;28;20463;-63
2022/03/24 02:55:03;;;;;;;48.57;23.17;;;;;;;;;;5088591;28;20489;-63
2022/03/24 02:57:30;;;;;;;51.07;24.07;;;;;;;;;;5073202;28;20448;-63
2022/03/24 02:59:57;;;;;;;41.27;18.97;;;;;;;;;;5068699;28;20475;-63
2022/03/24 03:02:24;;;;;;;46.40;20.73;;;;;;;;;;5050083;28;20436;-63
2022/03/24 03:04:53;;;;;;;37.43;19.37;;;;;;;;;;5069022;28;20873;-63
2022/03/24 03:07:20;;;;;;;35.03;17.47;;;;;;;;;;5072719;28;20420;-63
2022/03/24 03:09:47;;;;;;;41.37;18.93;;;;;;;;;;5088711;28;20443;-63
2022/03/24 03:12:16;;;;;;;45.90;21.97;;;;;;;;;;5084970;28;21396;-63
2022/03/24 03:14:43;;;;;;;40.67;18.83;;;;;;;;;;5050625;28;20463;-64
2022/03/24 03:17:11;;;;;;;42.23;18.27;;;;;;;;;;5068496;28;20424;-63
2022/03/24 03:19:39;;;;;;;44.33;22.00;;;;;;;;;;5068534;28;20475;-63
2022/03/24 03:22:06;;;;;;;39.90;18.37;;;;;;;;;;5052467;28;20519;-63
2022/03/24 03:24:32;;;;;;;37.83;18.70;;;;;;;;;;5072371;28;20470;-63
2022/03/24 03:26:59;;;;;;;36.83;19.13;;;;;;;;;;5072463;28;20428;-63
2022/03/24 03:29:26;;;;;;;44.33;19.83;;;;;;;;;;5072013;28;20483;-62
2022/03/24 03:31:53;;;;;;;40.85;23.65;;;;;;;;;;5071945;28;20448;-63
2022/03/24 03:34:24;;;;;;;33.77;17.67;;;;;;;;;;5072023;28;20190;-64
2022/03/24 03:36:54;;;;;;;37.57;19.30;;;;;;;;;;5072269;28;20502;-63
2022/03/24 03:39:22;;;;;;;32.57;16.77;;;;;;;;;;5071849;28;20464;-64
2022/03/24 03:41:49;;;;;;;31.43;16.30;;;;;;;;;;5072218;28;20969;-64
2022/03/24 03:44:34;;;;;;;28.90;14.37;;;;;;;;;;5071820;28;20459;-63
2022/03/24 03:47:01;;;;;;;28.20;14.63;;;;;;;;;;5072317;28;20451;-63
2022/03/24 03:49:45;;;;;;;31.03;14.30;;;;;;;;;;5072227;28;20907;-63
2022/03/24 03:52:30;;;;;;;28.70;14.50;;;;;;;;;;5071744;28;20440;-64
2022/03/24 03:55:14;;;;;;;25.27;13.70;;;;;;;;;;5071924;28;20424;-64
2022/03/24 03:57:41;;;;;;;27.30;14.23;;;;;;;;;;5071267;28;20436;-63
2022/03/24 04:02:53;;;;;;;27.77;14.87;;;;;;;;;;5071461;28;20462;-64
2022/03/24 04:05:25;;;;;;;28.73;15.23;;;;;;;;;;5070485;28;20443;-64
2022/03/24 04:07:52;;;;;;;27.93;14.60;;;;;;;;;;5080872;28;20431;-64
2022/03/24 04:10:21;;;;;;;27.60;14.47;;;;;;;;;;5074072;28;20427;-64
2022/03/24 04:12:50;;;;;;;31.60;15.70;;;;;;;;;;5091873;28;20845;-64
2022/03/24 04:15:17;;;;;;;31.27;15.40;;;;;;;;;;5074319;28;20459;-64
2022/03/24 04:17:44;;;;;;;29.33;14.77;;;;;;;;;;5091151;28;20432;-64
2022/03/24 04:20:12;;;;;;;29.30;14.83;;;;;;;;;;5091981;28;21039;-64
2022/03/24 04:22:38;;;;;;;28.60;14.07;;;;;;;;;;5079872;28;20966;-63
2022/03/24 04:25:10;;;;;;;28.73;14.93;;;;;;;;;;5071456;28;20443;-64
2022/03/24 04:27:36;;;;;;;26.53;14.80;;;;;;;;;;5071430;28;20503;-64
2022/03/24 04:30:03;;;;;;;29.30;14.47;;;;;;;;;;5070610;28;20420;-64
2022/03/24 04:32:30;;;;;;;27.50;14.07;;;;;;;;;;5070958;28;20416;-64
2022/03/24 04:34:57;;;;;;;28.00;14.37;;;;;;;;;;5069517;28;20555;-64
2022/03/24 04:37:25;;;;;;;26.80;15.07;;;;;;;;;;5070936;28;20431;-64
2022/03/24 04:39:51;;;;;;;29.30;14.43;;;;;;;;;;5071033;28;20553;-64
2022/03/24 04:42:18;;;;;;;25.50;13.90;;;;;;;;;;5071122;28;20435;-64
2022/03/24 04:44:45;;;;;;;28.80;14.60;;;;;;;;;;5070831;28;20507;-63
2022/03/24 04:47:12;;;;;;;33.63;15.23;;;;;;;;;;5087415;28;21170;-64
2022/03/24 04:49:56;;;;;;;27.83;14.93;;;;;;;;;;5091583;28;20407;-64
2022/03/24 04:52:23;;;;;;;25.70;13.97;;;;;;;;;;5090847;28;20437;-64
2022/03/24 04:54:50;;;;;;;27.43;15.57;;;;;;;;;;5090978;28;20432;-63
2022/03/24 04:57:17;;;;;;;29.07;15.13;;;;;;;;;;5091247;28;20423;-64
2022/03/24 04:59:43;;;;;;;30.70;15.13;;;;;;;;;;5090577;28;20467;-64
2022/03/24 05:02:15;;;;;;;28.40;15.93;;;;;;;;;;5091242;28;20420;-64
2022/03/24 05:04:42;;;;;;;30.73;15.40;;;;;;;;;;5076793;28;20480;-64
2022/03/24 05:07:11;;;;;;;33.43;15.77;;;;;;;;;;5073548;28;20491;-64
2022/03/24 05:09:38;;;;;;;28.27;15.47;;;;;;;;;;5090845;28;21102;-64
2022/03/24 05:12:05;;;;;;;30.50;15.93;;;;;;;;;;5090676;28;20427;-64
2022/03/24 05:14:32;;;;;;;35.60;17.30;;;;;;;;;;5090704;28;21175;-64
2022/03/24 05:16:59;;;;;;;35.50;17.00;;;;;;;;;;5090752;28;20421;-64
2022/03/24 05:19:26;;;;;;;33.27;17.37;;;;;;;;;;5086073;28;20491;-64
2022/03/24 05:21:52;;;;;;;37.37;18.17;;;;;;;;;;5070822;28;21050;-64
2022/03/24 05:24:19;;;;;;;35.07;18.43;;;;;;;;;;5089220;28;20435;-64
2022/03/24 05:26:46;;;;;;;37.37;17.40;;;;;;;;;;5088201;28;20455;-64
2022/03/24 05:29:13;;;;;;;37.03;18.30;;;;;;;;;;5070258;28;20979;-64
2022/03/24 05:31:40;;;;;;;37.17;18.77;;;;;;;;;;5070015;28;20942;-64
2022/03/24 05:34:07;;;;;;;35.93;18.23;;;;;;;;;;5051851;28;20804;-64
2022/03/24 05:36:33;;;;;;;34.67;17.70;;;;;;;;;;5070271;28;20438;-64
2022/03/24 05:39:00;;;;;;;33.47;18.33;;;;;;;;;;5081648;28;20995;-65
2022/03/24 05:41:27;;;;;;;37.37;18.63;;;;;;;;;;5089372;28;20908;-64
2022/03/24 05:44:03;;;;;;;32.40;17.63;;;;;;;;;;5095863;28;20532;-65
2022/03/24 05:46:44;;;;;;;34.87;18.17;;;;;;;;;;5083983;28;20427;-63
2022/03/24 05:49:16;;;;;;;33.77;17.60;;;;;;;;;;5067424;28;20446;-64
2022/03/24 05:52:01;;;;;;;35.10;16.67;;;;;;;;;;5106886;28;20430;-65
2022/03/24 05:54:47;;;;;;;34.13;17.47;;;;;;;;;;5087265;28;20421;-64
2022/03/24 05:57:16;;;;;;;32.87;16.77;;;;;;;;;;5082574;28;20427;-66
2022/03/24 06:00:06;;;;;;;30.93;16.93;;;;;;;;;;5065558;28;21025;-66
2022/03/24 06:02:39;;;;;;;36.93;18.50;;;;;;;;;;5082139;28;20437;-65
2022/03/24 06:05:25;;;;;;;29.30;16.07;;;;;;;;;;5067255;28;20420;-64
2022/03/24 06:07:52;;;;;;;28.57;15.87;;;;;;;;;;5069628;28;20452;-66
2022/03/24 06:10:19;;;;;;;30.07;16.33;;;;;;;;;;5072284;28;20490;-65
2022/03/24 06:12:47;;;;;;;30.53;14.97;;;;;;;;;;5101878;28;20426;-65
2022/03/24 06:15:14;;;;;;;28.40;15.30;;;;;;;;;;5069652;28;20281;-64
2022/03/24 06:17:41;;;;;;;25.27;14.60;;;;;;;;;;5085329;28;21168;-65
2022/03/24 06:20:08;;;;;;;32.27;15.37;;;;;;;;;;5084877;28;20546;-65
2022/03/24 06:22:50;;;;;;;27.43;14.67;;;;;;;;;;5083885;28;20932;-65
2022/03/24 06:25:17;;;;;;;25.27;13.80;;;;;;;;;;5055407;28;20438;-64
2022/03/24 06:27:45;;;;;;;27.23;13.60;;;;;;;;;;5096570;28;20456;-65
2022/03/24 06:30:12;;;;;;;27.10;13.47;;;;;;;;;;5083285;28;20657;-65
2022/03/24 06:32:39;;;;;;;24.33;13.70;;;;;;;;;;5070616;28;20297;-65
2022/03/24 06:35:08;;;;;;;21.70;12.93;;;;;;;;;;5101544;28;20635;-65
2022/03/24 06:37:39;;;;;;;21.70;13.30;;;;;;;;;;5078930;28;20186;-65
2022/03/24 06:40:24;;;;;;;23.27;12.63;;;;;;;;;;5095764;28;20295;-65
2022/03/24 06:42:52;;;;;;;23.77;13.07;;;;;;;;;;5073851;28;20186;-65
2022/03/24 06:45:38;;;;;;;26.00;12.23;;;;;;;;;;5099744;28;20180;-65
2022/03/24 06:48:09;;;;;;;23.87;12.47;;;;;;;;;;5107950;28;20242;-65
2022/03/24 06:50:36;;;;;;;22.13;11.70;;;;;;;;;;5091631;28;20188;-65
2022/03/24 06:53:20;;;;;;;23.43;13.33;;;;;;;;;;5109357;28;20183;-65
2022/03/24 06:56:06;;;;;;;20.27;11.73;;;;;;;;;;5102485;28;20174;-64
2022/03/24 06:58:35;;;;;;;27.57;13.53;;;;;;;;;;5069026;28;20179;-64
2022/03/24 07:01:03;;;;;;;18.77;10.97;;;;;;;;;;5077258;28;20222;-66
2022/03/24 07:03:30;;;;;;;23.67;13.20;;;;;;;;;;5068792;28;20190;-65
2022/03/24 07:05:57;;;;;;;20.80;12.60;;;;;;;;;;5068685;28;20192;-65
2022/03/24 07:08:42;;;;;;;26.97;13.33;;;;;;;;;;5084217;28;20165;-66
2022/03/24 07:11:09;;;;;;;24.37;13.53;;;;;;;;;;5088297;28;20277;-65
2022/03/24 07:13:36;;;;;;;26.43;14.40;;;;;;;;;;5088972;28;20584;-65
2022/03/24 07:16:08;;;;;;;29.63;14.10;;;;;;;;;;5088725;28;20226;-65
2022/03/24 07:18:34;;;;;;;24.37;14.67;;;;;;;;;;5088311;28;20280;-66
2022/03/24 07:21:01;;;;;;;24.67;13.93;;;;;;;;;;5088346;28;20474;-65
2022/03/24 07:23:28;;;;;;;22.07;13.73;;;;;;;;;;5088791;28;20224;-66
2022/03/24 07:25:55;;;;;;;23.27;13.73;;;;;;;;;;5088932;28;20717;-66
2022/03/24 07:28:22;;;;;;;23.40;13.80;;;;;;;;;;5074533;28;20221;-66
2022/03/24 07:30:50;;;;;;;24.67;15.17;;;;;;;;;;5050375;28;20202;-66
2022/03/24 07:33:18;;;;;;;26.33;14.23;;;;;;;;;;5068332;28;20216;-66
2022/03/24 07:35:45;;;;;;;27.30;14.83;;;;;;;;;;5068091;28;20285;-66
2022/03/24 07:38:15;;;;;;;27.27;15.43;;;;;;;;;;5068603;28;20198;-66
2022/03/24 07:40:49;;;;;;;24.33;14.70;;;;;;;;;;5068598;28;20236;-66
2022/03/24 07:43:16;;;;;;;22.07;13.90;;;;;;;;;;5064459;28;20245;-66
2022/03/24 07:45:42;;;;;;;25.77;14.87;;;;;;;;;;5067727;28;20193;-66
2022/03/24 07:48:10;;;;;;;26.63;14.60;;;;;;;;;;5068397;28;20162;-66
2022/03/24 07:50:38;;;;;;;22.93;13.87;;;;;;;;;;5068253;28;20716;-66
2022/03/24 07:53:11;;;;;;;23.80;14.40;;;;;;;;;;5068443;28;20536;-66
2022/03/24 07:55:38;;;;;;;24.30;14.37;;;;;;;;;;5068290;28;20691;-67
2022/03/24 07:58:05;;;;;;;23.97;14.57;;;;;;;;;;5066756;28;20294;-66
2022/03/24 08:00:32;;;;;;;21.50;13.97;;;;;;;;;;5068272;28;20296;-66
2022/03/24 08:02:59;;;;;;;21.60;13.73;;;;;;;;;;5068248;28;20190;-67
2022/03/24 08:05:26;;;;;;;22.80;13.87;;;;;;;;;;5067512;28;20193;-66
2022/03/24 08:07:56;;;;;;;23.57;13.10;;;;;;;;;;5068477;28;20182;-67
2022/03/24 08:10:23;;;;;;;21.60;13.57;;;;;;;;;;5071527;28;20255;-67
2022/03/24 08:12:50;;;;;;;21.13;13.97;;;;;;;;;;5070560;28;20577;-67
2022/03/24 08:15:17;;;;;;;22.67;14.30;;;;;;;;;;5071691;28;20193;-67
2022/03/24 08:17:44;;;;;;;20.97;13.37;;;;;;;;;;5071660;28;20605;-67
2022/03/24 08:20:11;;;;;;;20.30;14.13;;;;;;;;;;5072053;28;20220;-67
2022/03/24 08:22:38;;;;;;;21.13;13.63;;;;;;;;;;5071400;28;20221;-67
2022/03/24 08:25:08;;;;;;;18.70;13.00;;;;;;;;;;5070446;28;20197;-67
2022/03/24 08:27:35;;;;;;;21.57;14.00;;;;;;;;;;5071459;28;20323;-67
2022/03/24 08:30:05;;;;;;;20.77;13.83;;;;;;;;;;5070565;28;20186;-67
2022/03/24 08:32:32;;;;;;;20.40;12.73;;;;;;;;;;5070337;28;20259;-67
2022/03/24 08:35:00;;;;;;;21.17;13.17;;;;;;;;;;5070595;28;20205;-67
2022/03/24 08:37:26;;;;;;;23.30;14.00;;;;;;;;;;5070086;28;20201;-66
2022/03/24 08:39:53;;;;;;;20.13;13.57;;;;;;;;;;5071442;28;20201;-67
2022/03/24 08:42:20;;;;;;;20.40;12.77;;;;;;;;;;5070086;28;20255;-67
2022/03/24 08:44:46;;;;;;;19.63;12.70;;;;;;;;;;5089317;28;20256;-67
2022/03/24 08:47:13;;;;;;;25.83;11.93;;;;;;;;;;5091699;28;20197;-67
2022/03/24 08:49:43;;;;;;;17.07;11.70;;;;;;;;;;5073247;28;20197;-67
2022/03/24 08:52:09;;;;;;;17.40;11.60;;;;;;;;;;5090531;28;20205;-67
2022/03/24 08:54:54;;;;;;;19.70;10.57;;;;;;;;;;5091359;28;20166;-67
2022/03/24 08:57:27;;;;;;;17.07;11.00;;;;;;;;;;5091106;28;20267;-67
2022/03/24 09:00:13;;;;;;;18.67;10.10;;;;;;;;;;5091121;28;20193;-67
2022/03/24 09:02:40;;;;;;;18.00;10.03;;;;;;;;;;5090780;28;20952;-67
2022/03/24 09:05:07;;;;;;;17.10;9.60;;;;;;;;;;5091421;28;20178;-68
2022/03/24 09:07:34;;;;;;;19.00;10.17;;;;;;;;;;5072843;28;20190;-68
2022/03/24 09:10:02;;;;;;;15.03;10.30;;;;;;;;;;5090862;28;20680;-68
2022/03/24 09:12:29;;;;;;;19.93;10.20;;;;;;;;;;5090780;28;20268;-69
2022/03/24 09:14:57;;;;;;;13.80;9.77;;;;;;;;;;5090808;28;20208;-67
2022/03/24 09:17:24;;;;;;;23.60;9.87;;;;;;;;;;5053737;28;20190;-68
2022/03/24 09:19:51;;;;;;;20.93;10.13;;;;;;;;;;5036103;28;20710;-68
2022/03/24 09:22:17;;;;;;;24.47;9.43;;;;;;;;;;5070872;28;20194;-68
2022/03/24 09:24:44;;;;;;;16.53;9.40;;;;;;;;;;5069048;28;20200;-68
2022/03/24 09:27:11;;;;;;;13.53;8.53;;;;;;;;;;5070442;28;20281;-68
2022/03/24 09:29:38;;;;;;;12.30;8.60;;;;;;;;;;5070589;28;20186;-67
2022/03/24 09:32:09;;;;;;;12.73;8.70;;;;;;;;;;5070188;28;20190;-68
2022/03/24 09:34:54;;;;;;;16.57;8.70;;;;;;;;;;5070672;28;20181;-67
2022/03/24 09:37:22;;;;;;;14.90;8.67;;;;;;;;;;5070018;28;20186;-67
2022/03/24 09:39:49;;;;;;;13.57;7.70;;;;;;;;;;5070507;28;20205;-67
2022/03/24 09:42:17;;;;;;;14.77;8.70;;;;;;;;;;5070177;28;20193;-69
2022/03/24 09:44:45;;;;;;;16.80;8.10;;;;;;;;;;5069868;28;20226;-68
2022/03/24 09:47:29;;;;;;;15.37;8.60;;;;;;;;;;5069864;28;20170;-68
2022/03/24 09:49:56;;;;;;;15.77;8.83;;;;;;;;;;5070482;28;20842;-68
2022/03/24 09:52:40;;;;;;;18.40;7.97;;;;;;;;;;5069617;28;20177;-68
2022/03/24 09:55:12;;;;;;;13.43;7.00;;;;;;;;;;5069993;28;20201;-68
2022/03/24 09:57:41;;;;;;;11.47;6.30;;;;;;;;;;5051947;28;20298;-68
2022/03/24 10:00:28;;;;;;;9.80;6.20;;;;;;;;;;5055219;28;20198;-68
2022/03/24 10:03:07;;;;;;;12.53;6.33;;;;;;;;;;5069667;28;20601;-69
2022/03/24 10:05:34;;;;;;;12.40;6.70;;;;;;;;;;5069622;28;20695;-69
2022/03/24 10:08:05;;;;;;;10.37;5.80;;;;;;;;;;5045491;28;20186;-69
2022/03/24 10:10:34;;;;;;;10.50;6.27;;;;;;;;;;5069788;28;20193;-69
2022/03/24 10:13:01;;;;;;;11.00;5.60;;;;;;;;;;5051971;28;20220;-69
2022/03/24 10:15:28;;;;;;;8.43;5.80;;;;;;;;;;5052061;28;20220;-69
2022/03/24 10:17:56;;;;;;;16.60;5.63;;;;;;;;;;5051145;28;20221;-69
2022/03/24 10:20:26;;;;;;;12.33;5.63;;;;;;;;;;5051291;28;20194;-70
2022/03/24 10:22:53;;;;;;;10.50;6.10;;;;;;;;;;5051985;28;20178;-69
2022/03/24 10:25:21;;;;;;;10.03;6.53;;;;;;;;;;5069164;28;20182;-69
2022/03/24 10:28:06;;;;;;;11.43;6.80;;;;;;;;;;5054317;28;20198;-69
2022/03/24 10:30:45;;;;;;;7.87;6.17;;;;;;;;;;5068790;28;20272;-69
2022/03/24 10:33:31;;;;;;;10.23;6.97;;;;;;;;;;5068334;28;20221;-69
2022/03/24 10:36:11;;;;;;;10.27;6.37;;;;;;;;;;5069258;28;20244;-69
2022/03/24 10:38:42;;;;;;;12.57;7.33;;;;;;;;;;5067578;28;20197;-69
2022/03/24 10:41:15;;;;;;;10.37;7.20;;;;;;;;;;5068516;28;20221;-69
2022/03/24 10:43:41;;;;;;;12.17;7.30;;;;;;;;;;5068900;28;20233;-69
2022/03/24 10:46:14;;;;;;;12.70;7.70;;;;;;;;;;5068276;28;20194;-69
2022/03/24 10:48:41;;;;;;;10.77;7.50;;;;;;;;;;5050573;28;20186;-69
2022/03/24 10:51:08;;;;;;;15.57;7.43;;;;;;;;;;5051294;28;20186;-69
2022/03/24 10:53:41;;;;;;;12.90;6.90;;;;;;;;;;5068732;28;20672;-69
2022/03/24 10:56:29;;;;;;;13.43;7.23;;;;;;;;;;5068012;28;20162;-70
2022/03/24 10:59:00;;;;;;;27.07;7.27;;;;;;;;;;5069038;28;20967;-69
2022/03/24 11:01:45;;;;;;;9.57;6.77;;;;;;;;;;5050756;28;20295;-70
2022/03/24 11:04:12;;;;;;;13.53;7.13;;;;;;;;;;5068485;28;20178;-70
2022/03/24 11:06:49;;;;;;;11.13;7.37;;;;;;;;;;5051129;28;20190;-69
2022/03/24 11:09:23;;;;;;;12.00;7.00;;;;;;;;;;5068831;28;20331;-69
2022/03/24 11:12:08;;;;;;;14.20;8.33;;;;;;;;;;5068843;28;20193;-69
2022/03/24 11:14:38;;;;;;;10.33;6.80;;;;;;;;;;5068522;28;20186;-69
2022/03/24 11:17:05;;;;;;;12.80;7.97;;;;;;;;;;5068718;28;20178;-69
2022/03/24 11:19:32;;;;;;;12.57;7.43;;;;;;;;;;5050947;28;20695;-70
2022/03/24 11:21:59;;;;;;;10.00;6.23;;;;;;;;;;5082468;28;20274;-70
2022/03/24 11:24:25;;;;;;;12.53;7.37;;;;;;;;;;5070812;28;20204;-70
2022/03/24 11:26:52;;;;;;;13.23;7.53;;;;;;;;;;5088688;28;20173;-70
2022/03/24 11:29:19;;;;;;;11.70;7.53;;;;;;;;;;5088781;28;20201;-70
2022/03/24 11:32:03;;;;;;;11.33;6.50;;;;;;;;;;5088678;28;20165;-69
2022/03/24 11:34:30;;;;;;;13.13;7.60;;;;;;;;;;5070851;28;20190;-70
2022/03/24 11:37:14;;;;;;;13.03;7.30;;;;;;;;;;5073532;28;20174;-70
2022/03/24 11:39:43;;;;;;;11.97;7.37;;;;;;;;;;5069780;28;20193;-69
2022/03/24 11:42:10;;;;;;;10.13;6.87;;;;;;;;;;5071342;28;20213;-69
2022/03/24 11:44:45;;;;;;;9.60;6.83;;;;;;;;;;5092636;28;20355;-69
2022/03/24 11:47:12;;;;;;;11.13;7.03;;;;;;;;;;5092995;28;20200;-69
2022/03/24 11:49:39;;;;;;;12.10;7.20;;;;;;;;;;5074831;28;20170;-69
2022/03/24 11:52:06;;;;;;;10.47;6.93;;;;;;;;;;5074622;28;20198;-69
2022/03/24 11:54:52;;;;;;;8.83;6.50;;;;;;;;;;5091294;28;20659;-69
2022/03/24 11:57:23;;;;;;;11.83;6.10;;;;;;;;;;5075057;28;21025;-69
2022/03/24 11:59:50;;;;;;;11.70;6.90;;;;;;;;;;5092671;28;20532;-69
2022/03/24 12:02:17;;;;;;;11.33;7.53;;;;;;;;;;5092370;28;20220;-69
2022/03/24 12:04:48;;;;;;;8.80;6.97;;;;;;;;;;5092381;28;20182;-68
2022/03/24 12:07:32;;;;;;;9.80;6.83;;;;;;;;;;5062903;28;20729;-68
2022/03/24 12:10:00;;;;;;;9.70;6.77;;;;;;;;;;5090923;28;20181;-68
2022/03/24 12:12:28;;;;;;;12.10;7.43;;;;;;;;;;5073824;28;20197;-68
2022/03/24 12:14:55;;;;;;;10.97;6.53;;;;;;;;;;5073754;28;20189;-68
2022/03/24 12:17:25;;;;;;;11.13;7.57;;;;;;;;;;5089789;28;20280;-68
2022/03/24 12:19:52;;;;;;;14.33;7.37;;;;;;;;;;5071939;28;20189;-68
2022/03/24 12:22:25;;;;;;;12.33;7.17;;;;;;;;;;5071542;28;20612;-68
2022/03/24 12:24:52;;;;;;;11.10;6.50;;;;;;;;;;5071419;28;20186;-69
2022/03/24 12:27:19;;;;;;;8.87;6.63;;;;;;;;;;5071621;28;20189;-68
2022/03/24 12:30:04;;;;;;;10.87;7.00;;;;;;;;;;5071681;28;20178;-68
2022/03/24 12:32:32;;;;;;;11.00;6.97;;;;;;;;;;5071452;28;20190;-68
2022/03/24 12:34:59;;;;;;;10.90;6.77;;;;;;;;;;5071640;28;20992;-68
2022/03/24 12:37:25;;;;;;;11.50;7.70;;;;;;;;;;5071376;28;20193;-68
2022/03/24 12:40:09;;;;;;;13.40;7.63;;;;;;;;;;5071294;28;20194;-68
2022/03/24 12:42:45;;;;;;;10.13;6.97;;;;;;;;;;5053889;28;20875;-68
2022/03/24 12:45:27;;;;;;;12.73;7.50;;;;;;;;;;5053728;28;20198;-68
2022/03/24 12:47:57;;;;;;;13.13;7.60;;;;;;;;;;5070984;28;20237;-69
2022/03/24 12:50:29;;;;;;;15.23;9.77;;;;;;;;;;5053326;28;20182;-69
2022/03/24 12:52:59;;;;;;;11.97;7.20;;;;;;;;;;5071590;28;20194;-69
2022/03/24 12:55:28;;;;;;;11.83;6.97;;;;;;;;;;5070214;28;20365;-69
2022/03/24 12:57:55;;;;;;;10.17;7.10;;;;;;;;;;5053657;28;20591;-68
2022/03/24 13:00:24;;;;;;;12.97;6.80;;;;;;;;;;5053069;28;20676;-69
2022/03/24 13:02:50;;;;;;;9.97;6.77;;;;;;;;;;5091185;28;20213;-68
2022/03/24 13:05:22;;;;;;;13.63;8.17;;;;;;;;;;5091194;28;20541;-69
2022/03/24 13:07:50;;;;;;;11.47;7.63;;;;;;;;;;5056772;28;20203;-68
2022/03/24 13:10:17;;;;;;;12.43;6.50;;;;;;;;;;5072413;28;20600;-68
2022/03/24 13:12:48;;;;;;;16.47;9.23;;;;;;;;;;5090863;28;20193;-69
2022/03/24 13:15:27;;;;;;;13.90;7.20;;;;;;;;;;5090999;28;20177;-68
2022/03/24 13:18:13;;;;;;;11.63;7.03;;;;;;;;;;5090827;28;20173;-69
2022/03/24 13:20:45;;;;;;;9.67;6.00;;;;;;;;;;5074952;28;20228;-69
2022/03/24 13:23:12;;;;;;;12.23;6.50;;;;;;;;;;5053457;28;20277;-69
2022/03/24 13:25:41;;;;;;;10.90;6.43;;;;;;;;;;5070542;28;20961;-69
2022/03/24 13:28:07;;;;;;;11.47;7.17;;;;;;;;;;5070789;28;20190;-69
2022/03/24 13:30:52;;;;;;;9.77;6.13;;;;;;;;;;5055337;28;20175;-69
2022/03/24 13:33:20;;;;;;;10.63;6.17;;;;;;;;;;5070501;28;20186;-70
2022/03/24 13:35:47;;;;;;;7.37;5.73;;;;;;;;;;5052618;28;20269;-70
2022/03/24 13:38:20;;;;;;;10.27;6.17;;;;;;;;;;5036840;28;20186;-70
2022/03/24 13:40:49;;;;;;;10.33;6.47;;;;;;;;;;5073813;28;20185;-70
2022/03/24 13:43:16;;;;;;;9.20;6.30;;;;;;;;;;5065181;28;20314;-70
2022/03/24 13:45:44;;;;;;;12.03;8.00;;;;;;;;;;5048978;28;20190;-70
2022/03/24 13:48:12;;;;;;;10.27;6.13;;;;;;;;;;5065671;28;20289;-71
2022/03/24 13:50:39;;;;;;;14.03;6.70;;;;;;;;;;5065387;28;20187;-70
2022/03/24 13:53:19;;;;;;;10.77;6.13;;;;;;;;;;5049201;28;20266;-71
2022/03/24 13:56:13;;;;;;;9.57;6.27;;;;;;;;;;5045093;28;20511;-71
2022/03/24 13:58:41;;;;;;;9.87;6.20;;;;;;;;;;5030258;28;20194;-72
2022/03/24 14:01:25;;;;;;;21.87;6.57;;;;;;;;;;5030004;28;20238;-70
2022/03/24 14:03:53;;;;;;;9.90;5.20;;;;;;;;;;5028929;28;20171;-70
2022/03/24 14:06:37;;;;;;;12.03;6.00;;;;;;;;;;5030079;28;20176;-69
2022/03/24 14:09:04;;;;;;;12.10;5.40;;;;;;;;;;5048022;28;20186;-70
2022/03/24 14:11:31;;;;;;;12.67;6.50;;;;;;;;;;5048507;28;20279;-69
2022/03/24 14:13:59;;;;;;;9.33;6.30;;;;;;;;;;5050054;28;20700;-70
2022/03/24 14:16:30;;;;;;;10.20;6.57;;;;;;;;;;5049759;28;20266;-69
2022/03/24 14:19:03;;;;;;;14.17;6.57;;;;;;;;;;5049558;28;20682;-70
2022/03/24 14:21:39;;;;;;;14.97;7.03;;;;;;;;;;5048651;28;20210;-69
2022/03/24 14:24:06;;;;;;;11.50;7.30;;;;;;;;;;5049546;28;20638;-69
2022/03/24 14:26:33;;;;;;;12.77;6.57;;;;;;;;;;5031921;28;20187;-69
2022/03/24 14:29:00;;;;;;;10.43;6.17;;;;;;;;;;5049582;28;20214;-69
2022/03/24 14:31:44;;;;;;;9.93;6.20;;;;;;;;;;5047858;28;20171;-69
2022/03/24 14:34:15;;;;;;;12.13;6.63;;;;;;;;;;5047931;28;20178;-69
2022/03/24 14:37:06;;;;;;;13.57;6.97;;;;;;;;;;5034340;28;20992;-70
2022/03/24 14:39:41;;;;;;;15.33;6.90;;;;;;;;;;5049243;28;20713;-70
2022/03/24 14:45:39;;;;;;;13.97;6.47;;;;;;;;;;5070990;28;20221;-69
2022/03/24 14:48:34;;;;;;;14.00;7.20;;;;;;;;;;5075273;28;20166;-69
2022/03/24 14:51:20;;;;;;;14.73;7.07;;;;;;;;;;5058478;28;20197;-69
2022/03/24 14:54:12;;;;;;;14.80;7.20;;;;;;;;;;5066879;28;20212;-69
2022/03/24 14:56:54;;;;;;;11.23;6.10;;;;;;;;;;5073435;28;20852;-69
2022/03/24 14:59:21;;;;;;;8.33;5.77;;;;;;;;;;5088892;28;20682;-68
2022/03/24 15:01:47;;;;;;;12.33;6.83;;;;;;;;;;5088985;28;20262;-69
2022/03/24 15:04:14;;;;;;;14.37;7.13;;;;;;;;;;5071110;28;20181;-68
2022/03/24 15:06:41;;;;;;;12.53;7.03;;;;;;;;;;5071227;28;20202;-68
2022/03/24 15:09:08;;;;;;;11.97;7.47;;;;;;;;;;5088211;28;20544;-68
2022/03/24 15:11:35;;;;;;;9.63;6.53;;;;;;;;;;5087678;28;20180;-69
2022/03/24 15:20:44;;;;;;;13.97;7.50;;;;;;;;;;5087395;28;20293;-69
2022/03/24 15:23:41;;;;;;;13.20;6.93;;;;;;;;;;5061925;28;20205;-68
2022/03/24 15:26:49;;;;;;;13.33;7.47;;;;;;;;;;5086157;28;20246;-68
2022/03/24 15:38:10;;;;;;;13.60;7.67;;;;;;;;;;5088522;28;20203;-68
2022/03/24 15:53:36;;;;;;;19.93;9.23;;;;;;;;;;4986941;28;20163;-68